createdAt,value
2023-04-14T00:00:16.342Z,98.25
2023-04-14T00:00:47.233Z,98.35
2023-04-14T00:01:18.114Z,98.31
2023-04-14T00:01:49.106Z,98.15
2023-04-14T00:02:20.111Z,97.63
2023-04-14T00:02:50.668Z,97.42
2023-04-14T00:03:20.510Z,97.53
2023-04-14T00:03:52.157Z,97.63
2023-04-14T00:04:22.905Z,97.63
2023-04-14T00:04:53.641Z,97.42
2023-04-14T00:05:24.099Z,97.63
2023-04-14T00:05:55.031Z,97.74
2023-04-14T00:06:25.964Z,97.74
2023-04-14T00:06:56.873Z,97.84
2023-04-14T00:07:27.760Z,97.94
2023-04-14T00:07:58.660Z,97.84
2023-04-14T00:08:29.592Z,97.94
2023-04-14T00:09:00.709Z,98.05
2023-04-14T00:09:31.250Z,98.15
2023-04-14T00:10:02.154Z,98.05
2023-04-14T00:10:33.131Z,98.05
2023-04-14T00:11:03.949Z,97.94
2023-04-14T00:12:05.810Z,98.15
2023-04-14T00:12:36.754Z,98.35
2023-04-14T00:13:07.670Z,98.25
2023-04-14T00:13:38.647Z,98.46
2023-04-14T00:14:09.542Z,98.71
2023-04-14T00:14:40.428Z,98.77
2023-04-14T00:15:11.325Z,98.66
2023-04-14T00:15:40.910Z,98.66
2023-04-14T00:16:12.805Z,98.77
2023-04-14T00:16:43.754Z,98.82
2023-04-14T00:17:14.792Z,98.71
2023-04-14T00:17:45.311Z,98.92
2023-04-14T00:18:16.217Z,99.13
2023-04-14T00:18:47.099Z,99.08
2023-04-14T00:19:18.026Z,99.08
2023-04-14T00:19:48.910Z,99.13
2023-04-14T00:20:19.853Z,99.02
2023-04-14T00:20:50.650Z,99.13
2023-04-14T00:21:21.561Z,99.13
2023-04-14T00:21:52.505Z,99.23
2023-04-14T00:22:23.418Z,99.13
2023-04-14T00:22:54.339Z,99.02
2023-04-14T00:23:25.223Z,98.92
2023-04-14T00:23:56.034Z,99.02
2023-04-14T00:24:26.962Z,98.92
2023-04-14T00:24:57.892Z,99.02
2023-04-14T00:25:28.808Z,98.92
2023-04-14T00:25:59.698Z,98.92
2023-04-14T00:26:30.611Z,98.92
2023-04-14T00:27:01.506Z,99.23
2023-04-14T00:27:32.452Z,99.18
2023-04-14T00:28:03.395Z,99.18
2023-04-14T00:28:34.328Z,99.08
2023-04-14T00:29:36.150Z,98.46
2023-04-14T00:30:07.056Z,98.35
2023-04-14T00:30:36.590Z,98.46
2023-04-14T00:31:08.526Z,98.05
2023-04-14T00:31:39.532Z,97.84
2023-04-14T00:32:10.460Z,97.74
2023-04-14T00:32:41.434Z,97.74
2023-04-14T00:33:12.386Z,97.74
2023-04-14T00:33:43.301Z,97.84
2023-04-14T00:34:14.203Z,97.79
2023-04-14T00:34:45.123Z,97.69
2023-04-14T00:35:16.020Z,97.28
2023-04-14T00:35:46.951Z,97.28
2023-04-14T00:36:16.587Z,97.38
2023-04-14T00:36:48.566Z,97.17
2023-04-14T00:37:19.505Z,97.28
2023-04-14T00:37:50.392Z,97.28
2023-04-14T00:38:21.278Z,97.28
2023-04-14T00:38:52.193Z,97.22
2023-04-14T00:39:23.100Z,97.17
2023-04-14T00:39:53.989Z,97.17
2023-04-14T00:40:24.919Z,97.28
2023-04-14T00:40:55.806Z,97.28
2023-04-14T00:41:26.726Z,97.17
2023-04-14T00:41:57.617Z,97.17
2023-04-14T00:42:28.533Z,97.42
2023-04-14T00:42:59.441Z,97.63
2023-04-14T00:43:30.366Z,97.84
2023-04-14T00:44:01.284Z,97.94
2023-04-14T00:44:32.208Z,98.05
2023-04-14T00:45:03.157Z,97.94
2023-04-14T00:45:34.056Z,97.94
2023-04-14T00:46:05.024Z,97.94
2023-04-14T00:46:36.004Z,97.94
2023-04-14T00:47:06.908Z,97.84
2023-04-14T00:47:37.880Z,97.84
2023-04-14T00:48:08.322Z,97.84
2023-04-14T00:48:39.244Z,97.94
2023-04-14T00:49:10.176Z,97.94
2023-04-14T00:49:41.112Z,97.94
2023-04-14T00:50:12.032Z,98.05
2023-04-14T00:50:42.973Z,98.25
2023-04-14T00:51:13.889Z,98.25
2023-04-14T00:51:44.771Z,98.35
2023-04-14T00:52:15.658Z,98.35
2023-04-14T00:52:45.175Z,98.31
2023-04-14T00:53:17.083Z,98.41
2023-04-14T00:53:48.093Z,98.52
2023-04-14T00:54:19.007Z,98.52
2023-04-14T00:54:49.920Z,98.41
2023-04-14T00:55:20.855Z,98.31
2023-04-14T00:55:51.743Z,98.31
2023-04-14T00:56:22.652Z,97.89
2023-04-14T00:56:53.586Z,97.69
2023-04-14T00:57:24.480Z,97.49
2023-04-14T00:57:55.396Z,97.17
2023-04-14T00:58:26.323Z,97.07
2023-04-14T00:58:57.299Z,96.86
2023-04-14T00:59:28.190Z,97.07
2023-04-14T00:59:59.088Z,96.55
2023-04-14T01:00:30.002Z,96.86
2023-04-14T01:01:00.930Z,97.07
2023-04-14T01:01:31.878Z,97.17
2023-04-14T01:02:04.228Z,97.07
2023-04-14T01:02:34.119Z,97.17
2023-04-14T01:03:04.770Z,97.28
2023-04-14T01:03:35.382Z,97.28
2023-04-14T01:04:06.174Z,97.07
2023-04-14T01:04:49.620Z,96.97
2023-04-14T01:05:07.599Z,97.07
2023-04-14T01:05:38.116Z,97.17
2023-04-14T01:06:09.014Z,97.38
2023-04-14T01:06:39.945Z,97.28
2023-04-14T01:07:10.840Z,97.17
2023-04-14T01:07:41.727Z,96.97
2023-04-14T01:08:12.677Z,96.97
2023-04-14T01:08:43.478Z,96.86
2023-04-14T01:09:14.386Z,96.97
2023-04-14T01:09:45.285Z,96.97
2023-04-14T01:10:16.189Z,96.66
2023-04-14T01:10:47.083Z,96.76
2023-04-14T01:11:17.897Z,96.76
2023-04-14T01:11:48.808Z,97.07
2023-04-14T01:12:50.644Z,96.86
2023-04-14T01:13:21.591Z,96.86
2023-04-14T01:13:52.399Z,96.86
2023-04-14T01:14:23.300Z,96.91
2023-04-14T01:14:54.190Z,97.07
2023-04-14T01:15:25.105Z,97.22
2023-04-14T01:15:56.092Z,97.42
2023-04-14T01:16:27.038Z,97.53
2023-04-14T01:16:57.990Z,97.59
2023-04-14T01:17:29.057Z,97.59
2023-04-14T01:17:59.639Z,97.49
2023-04-14T01:18:30.085Z,97.38
2023-04-14T01:19:01.334Z,97.59
2023-04-14T01:19:31.919Z,97.49
2023-04-14T01:20:01.917Z,97.49
2023-04-14T01:20:33.809Z,97.49
2023-04-14T01:21:04.744Z,97.38
2023-04-14T01:21:35.644Z,97.28
2023-04-14T01:22:06.566Z,96.76
2023-04-14T01:22:37.457Z,96.86
2023-04-14T01:23:08.428Z,97.28
2023-04-14T01:23:39.353Z,97.28
2023-04-14T01:24:10.250Z,97.28
2023-04-14T01:24:41.177Z,97.07
2023-04-14T01:25:12.080Z,97.07
2023-04-14T01:25:42.998Z,97.07
2023-04-14T01:26:13.900Z,97.28
2023-04-14T01:26:44.810Z,97.59
2023-04-14T01:27:15.707Z,97.69
2023-04-14T01:27:46.601Z,97.59
2023-04-14T01:28:17.537Z,97.42
2023-04-14T01:28:47.040Z,97.49
2023-04-14T01:29:18.962Z,97.17
2023-04-14T01:30:20.806Z,97.01
2023-04-14T01:30:51.720Z,96.91
2023-04-14T01:31:22.715Z,97.01
2023-04-14T01:31:53.163Z,97.63
2023-04-14T01:32:24.105Z,97.74
2023-04-14T01:32:55.075Z,97.53
2023-04-14T01:33:25.987Z,97.42
2023-04-14T01:33:56.879Z,97.42
2023-04-14T01:34:27.763Z,97.42
2023-04-14T01:34:58.690Z,97.74
2023-04-14T01:35:29.593Z,97.63
2023-04-14T01:36:00.480Z,97.63
2023-04-14T01:36:31.388Z,97.63
2023-04-14T01:37:02.292Z,97.63
2023-04-14T01:37:33.191Z,97.63
2023-04-14T01:38:04.121Z,97.53
2023-04-14T01:38:35.070Z,97.42
2023-04-14T01:39:05.987Z,97.42
2023-04-14T01:39:36.889Z,97.32
2023-04-14T01:40:07.817Z,97.22
2023-04-14T01:40:38.750Z,97.22
2023-04-14T01:41:09.664Z,97.42
2023-04-14T01:41:40.598Z,97.63
2023-04-14T01:42:11.531Z,97.53
2023-04-14T01:42:42.461Z,97.22
2023-04-14T01:43:13.376Z,97.22
2023-04-14T01:43:44.291Z,97.22
2023-04-14T01:44:15.197Z,97.53
2023-04-14T01:44:46.150Z,97.63
2023-04-14T01:45:17.060Z,97.74
2023-04-14T01:45:47.997Z,97.94
2023-04-14T01:46:18.977Z,97.74
2023-04-14T01:46:49.458Z,97.57
2023-04-14T01:47:20.347Z,97.67
2023-04-14T01:47:51.286Z,97.78
2023-04-14T01:48:22.186Z,97.67
2023-04-14T01:48:51.666Z,97.67
2023-04-14T01:49:23.624Z,97.78
2023-04-14T01:49:53.282Z,98.09
2023-04-14T01:50:25.213Z,98.35
2023-04-14T01:50:56.127Z,98.46
2023-04-14T01:51:27.053Z,98.46
2023-04-14T01:51:57.854Z,98.35
2023-04-14T01:52:28.811Z,98.15
2023-04-14T01:52:59.714Z,97.84
2023-04-14T01:53:30.607Z,97.74
2023-04-14T01:54:01.545Z,97.84
2023-04-14T01:54:32.468Z,97.63
2023-04-14T01:55:03.374Z,97.42
2023-04-14T01:55:34.306Z,97.74
2023-04-14T01:56:05.228Z,98.15
2023-04-14T01:56:36.145Z,98.15
2023-04-14T01:57:07.046Z,97.94
2023-04-14T01:57:37.938Z,97.84
2023-04-14T01:58:08.850Z,97.22
2023-04-14T01:58:39.774Z,97.01
2023-04-14T01:59:10.694Z,97.22
2023-04-14T01:59:41.601Z,97.32
2023-04-14T02:00:12.523Z,97.53
2023-04-14T02:00:43.448Z,97.53
2023-04-14T02:01:14.031Z,97.63
2023-04-14T02:01:44.973Z,97.84
2023-04-14T02:02:15.917Z,97.94
2023-04-14T02:02:47.122Z,97.94
2023-04-14T02:03:17.736Z,97.74
2023-04-14T02:03:48.274Z,97.32
2023-04-14T02:04:17.902Z,97.11
2023-04-14T02:04:49.808Z,97.01
2023-04-14T02:05:20.708Z,97.11
2023-04-14T02:05:54.145Z,97.26
2023-04-14T02:06:22.566Z,97.26
2023-04-14T02:06:53.505Z,97.16
2023-04-14T02:07:24.425Z,97.26
2023-04-14T02:07:55.348Z,97.57
2023-04-14T02:08:26.233Z,97.88
2023-04-14T02:08:57.129Z,97.99
2023-04-14T02:09:28.055Z,98.09
2023-04-14T02:09:58.985Z,98.19
2023-04-14T02:10:29.877Z,98.30
2023-04-14T02:11:00.789Z,98.30
2023-04-14T02:11:31.688Z,98.30
2023-04-14T02:12:02.604Z,98.50
2023-04-14T02:12:32.460Z,98.61
2023-04-14T02:13:04.368Z,98.71
2023-04-14T02:13:35.268Z,98.71
2023-04-14T02:14:06.154Z,98.82
2023-04-14T02:14:37.075Z,98.82
2023-04-14T02:15:07.976Z,98.50
2023-04-14T02:15:38.882Z,98.50
2023-04-14T02:16:09.873Z,98.61
2023-04-14T02:16:40.362Z,98.82
2023-04-14T02:17:11.269Z,98.82
2023-04-14T02:18:12.981Z,98.71
2023-04-14T02:18:45.306Z,98.82
2023-04-14T02:19:14.706Z,98.92
2023-04-14T02:19:45.621Z,99.02
2023-04-14T02:20:16.438Z,99.13
2023-04-14T02:20:47.325Z,99.13
2023-04-14T02:21:18.251Z,99.13
2023-04-14T02:21:49.168Z,99.02
2023-04-14T02:22:20.086Z,98.92
2023-04-14T02:22:51.025Z,98.82
2023-04-14T02:23:21.944Z,98.82
2023-04-14T02:23:52.877Z,98.92
2023-04-14T02:24:23.674Z,99.02
2023-04-14T02:24:54.570Z,99.13
2023-04-14T02:25:25.500Z,99.13
2023-04-14T02:25:56.278Z,99.33
2023-04-14T02:26:27.289Z,99.54
2023-04-14T02:26:57.709Z,99.43
2023-04-14T02:27:28.611Z,99.33
2023-04-14T02:27:58.120Z,99.54
2023-04-14T02:28:30.045Z,99.43
2023-04-14T02:29:01.088Z,99.23
2023-04-14T02:29:31.628Z,99.13
2023-04-14T02:30:02.550Z,99.02
2023-04-14T02:30:32.233Z,98.50
2023-04-14T02:31:04.184Z,98.09
2023-04-14T02:31:35.100Z,97.78
2023-04-14T02:32:06.036Z,98.09
2023-04-14T02:32:36.992Z,97.67
2023-04-14T02:33:07.897Z,97.67
2023-04-14T02:33:38.838Z,97.88
2023-04-14T02:34:09.749Z,97.88
2023-04-14T02:34:39.282Z,97.78
2023-04-14T02:35:11.202Z,97.47
2023-04-14T02:35:42.123Z,97.16
2023-04-14T02:36:13.042Z,96.95
2023-04-14T02:36:43.951Z,96.95
2023-04-14T02:37:14.880Z,97.26
2023-04-14T02:37:45.821Z,97.57
2023-04-14T02:38:16.729Z,97.67
2023-04-14T02:38:47.634Z,97.47
2023-04-14T02:39:18.552Z,97.57
2023-04-14T02:39:49.447Z,97.57
2023-04-14T02:40:20.377Z,97.36
2023-04-14T02:40:51.324Z,97.67
2023-04-14T02:41:22.236Z,97.74
2023-04-14T02:41:53.167Z,97.74
2023-04-14T02:42:24.085Z,97.63
2023-04-14T02:42:54.996Z,97.63
2023-04-14T02:43:25.915Z,97.63
2023-04-14T02:43:56.833Z,97.53
2023-04-14T02:44:27.770Z,97.32
2023-04-14T02:44:58.681Z,97.53
2023-04-14T02:45:29.598Z,97.42
2023-04-14T02:46:00.567Z,97.22
2023-04-14T02:46:31.493Z,97.11
2023-04-14T02:47:01.027Z,97.22
2023-04-14T02:47:31.543Z,97.22
2023-04-14T02:48:34.347Z,97.32
2023-04-14T02:49:05.295Z,97.32
2023-04-14T02:49:36.215Z,97.22
2023-04-14T02:50:05.748Z,97.01
2023-04-14T02:50:37.641Z,97.01
2023-04-14T02:51:08.467Z,97.22
2023-04-14T02:51:38.083Z,97.11
2023-04-14T02:52:10.016Z,97.22
2023-04-14T02:52:40.943Z,97.11
2023-04-14T02:53:11.847Z,96.91
2023-04-14T02:53:42.757Z,96.91
2023-04-14T02:54:13.670Z,96.91
2023-04-14T02:54:44.602Z,96.85
2023-04-14T02:55:15.523Z,96.85
2023-04-14T02:55:46.444Z,96.95
2023-04-14T02:56:17.402Z,97.26
2023-04-14T02:56:48.316Z,97.47
2023-04-14T02:57:19.200Z,97.36
2023-04-14T02:57:50.135Z,97.26
2023-04-14T02:58:21.040Z,97.06
2023-04-14T02:58:51.944Z,97.06
2023-04-14T02:59:22.865Z,97.16
2023-04-14T02:59:53.782Z,97.26
2023-04-14T03:00:24.722Z,97.47
2023-04-14T03:00:55.642Z,97.67
2023-04-14T03:01:26.551Z,97.78
2023-04-14T03:01:57.568Z,97.67
2023-04-14T03:02:27.340Z,97.67
2023-04-14T03:02:58.893Z,97.63
2023-04-14T03:03:29.356Z,97.63
2023-04-14T03:04:00.365Z,97.36
2023-04-14T03:04:30.879Z,97.06
2023-04-14T03:05:01.915Z,97.26
2023-04-14T03:05:32.625Z,97.36
2023-04-14T03:06:03.520Z,97.36
2023-04-14T03:06:33.024Z,97.26
2023-04-14T03:07:04.953Z,97.06
2023-04-14T03:07:35.840Z,97.06
2023-04-14T03:08:06.739Z,96.95
2023-04-14T03:08:37.649Z,96.75
2023-04-14T03:09:08.571Z,96.75
2023-04-14T03:09:39.463Z,96.44
2023-04-14T03:10:10.380Z,96.33
2023-04-14T03:10:41.289Z,96.75
2023-04-14T03:11:12.227Z,97.06
2023-04-14T03:11:43.167Z,97.16
2023-04-14T03:12:14.071Z,97.16
2023-04-14T03:12:45.006Z,97.06
2023-04-14T03:13:15.896Z,97.06
2023-04-14T03:13:46.790Z,97.06
2023-04-14T03:14:17.674Z,96.95
2023-04-14T03:14:48.595Z,96.85
2023-04-14T03:15:19.503Z,96.64
2023-04-14T03:15:50.474Z,96.75
2023-04-14T03:16:21.485Z,96.75
2023-04-14T03:16:53.616Z,96.64
2023-04-14T03:17:22.729Z,96.54
2023-04-14T03:17:52.263Z,96.85
2023-04-14T03:18:24.197Z,97.16
2023-04-14T03:18:53.694Z,97.06
2023-04-14T03:19:25.586Z,96.75
2023-04-14T03:19:56.497Z,96.75
2023-04-14T03:20:27.418Z,97.06
2023-04-14T03:20:58.336Z,96.95
2023-04-14T03:21:29.226Z,96.85
2023-04-14T03:22:00.250Z,97.36
2023-04-14T03:22:30.666Z,97.57
2023-04-14T03:23:01.549Z,97.57
2023-04-14T03:23:32.496Z,97.57
2023-04-14T03:24:03.423Z,97.57
2023-04-14T03:24:34.327Z,97.57
2023-04-14T03:25:05.275Z,97.57
2023-04-14T03:25:36.179Z,97.67
2023-04-14T03:26:07.107Z,97.47
2023-04-14T03:26:38.038Z,97.16
2023-04-14T03:27:08.987Z,97.26
2023-04-14T03:27:39.893Z,97.16
2023-04-14T03:28:10.819Z,96.95
2023-04-14T03:28:41.700Z,96.95
2023-04-14T03:29:12.605Z,97.06
2023-04-14T03:29:43.527Z,97.36
2023-04-14T03:30:14.485Z,97.36
2023-04-14T03:30:45.562Z,97.26
2023-04-14T03:31:15.990Z,97.16
2023-04-14T03:31:47.060Z,97.36
2023-04-14T03:32:17.527Z,97.36
2023-04-14T03:32:48.503Z,97.06
2023-04-14T03:33:19.417Z,97.06
2023-04-14T03:33:50.319Z,96.95
2023-04-14T03:34:21.201Z,96.89
2023-04-14T03:34:52.136Z,96.89
2023-04-14T03:35:23.062Z,97.00
2023-04-14T03:35:53.969Z,97.10
2023-04-14T03:36:24.859Z,97.00
2023-04-14T03:36:55.806Z,97.20
2023-04-14T03:37:26.717Z,97.31
2023-04-14T03:37:56.570Z,97.31
2023-04-14T03:38:28.516Z,97.31
2023-04-14T03:38:58.613Z,97.41
2023-04-14T03:39:29.660Z,97.41
2023-04-14T03:40:00.633Z,97.52
2023-04-14T03:40:31.163Z,97.72
2023-04-14T03:41:02.141Z,97.72
2023-04-14T03:41:33.042Z,97.83
2023-04-14T03:42:03.942Z,97.83
2023-04-14T03:42:34.887Z,97.72
2023-04-14T03:43:05.803Z,97.83
2023-04-14T03:43:36.726Z,97.83
2023-04-14T03:44:07.611Z,97.72
2023-04-14T03:44:38.515Z,97.83
2023-04-14T03:45:09.418Z,97.93
2023-04-14T03:45:40.329Z,97.93
2023-04-14T03:46:11.348Z,98.03
2023-04-14T03:46:40.904Z,98.03
2023-04-14T03:47:12.853Z,98.24
2023-04-14T03:47:42.757Z,98.24
2023-04-14T03:48:14.579Z,98.13
2023-04-14T03:48:45.508Z,98.03
2023-04-14T03:49:15.440Z,97.72
2023-04-14T03:49:47.371Z,97.41
2023-04-14T03:50:18.294Z,97.41
2023-04-14T03:50:49.183Z,97.31
2023-04-14T03:51:20.079Z,97.00
2023-04-14T03:51:50.995Z,96.89
2023-04-14T03:52:21.895Z,97.00
2023-04-14T03:52:52.801Z,97.00
2023-04-14T03:53:23.698Z,96.89
2023-04-14T03:53:55.872Z,96.89
2023-04-14T03:54:25.412Z,96.79
2023-04-14T03:54:56.356Z,96.69
2023-04-14T03:55:27.294Z,96.79
2023-04-14T03:55:58.200Z,96.79
2023-04-14T03:56:29.108Z,97.00
2023-04-14T03:57:00.028Z,97.20
2023-04-14T03:57:30.933Z,97.10
2023-04-14T03:58:01.857Z,97.10
2023-04-14T03:58:32.769Z,97.20
2023-04-14T03:59:03.677Z,97.00
2023-04-14T03:59:34.572Z,97.10
2023-04-14T04:00:05.513Z,96.89
2023-04-14T04:00:36.419Z,96.79
2023-04-14T04:01:07.323Z,96.69
2023-04-14T04:01:38.244Z,96.69
2023-04-14T04:02:09.218Z,96.79
2023-04-14T04:02:40.439Z,97.20
2023-04-14T04:03:11.177Z,97.20
2023-04-14T04:03:41.955Z,97.10
2023-04-14T04:04:11.789Z,96.89
2023-04-14T04:04:43.375Z,96.58
2023-04-14T04:05:44.882Z,96.89
2023-04-14T04:06:15.781Z,97.10
2023-04-14T04:06:46.587Z,97.10
2023-04-14T04:07:17.518Z,97.10
2023-04-14T04:07:48.458Z,97.10
2023-04-14T04:08:19.350Z,97.20
2023-04-14T04:08:50.240Z,97.31
2023-04-14T04:09:21.124Z,97.20
2023-04-14T04:09:51.154Z,97.10
2023-04-14T04:10:23.060Z,97.20
2023-04-14T04:10:53.989Z,97.31
2023-04-14T04:11:24.879Z,97.52
2023-04-14T04:11:55.712Z,97.72
2023-04-14T04:12:26.644Z,97.72
2023-04-14T04:12:57.567Z,97.62
2023-04-14T04:13:28.473Z,97.41
2023-04-14T04:13:59.306Z,97.20
2023-04-14T04:14:30.188Z,97.00
2023-04-14T04:15:01.067Z,96.58
2023-04-14T04:15:31.919Z,96.37
2023-04-14T04:16:02.838Z,96.27
2023-04-14T04:16:33.812Z,96.27
2023-04-14T04:17:04.751Z,96.27
2023-04-14T04:17:35.714Z,96.58
2023-04-14T04:18:06.585Z,96.79
2023-04-14T04:18:37.496Z,96.89
2023-04-14T04:19:09.367Z,96.89
2023-04-14T04:19:39.133Z,96.89
2023-04-14T04:20:09.899Z,97.00
2023-04-14T04:20:40.768Z,97.10
2023-04-14T04:21:10.714Z,97.10
2023-04-14T04:21:42.632Z,96.89
2023-04-14T04:22:13.480Z,96.69
2023-04-14T04:22:43.436Z,96.58
2023-04-14T04:23:15.308Z,96.48
2023-04-14T04:23:45.390Z,96.48
2023-04-14T04:24:16.988Z,96.69
2023-04-14T04:24:47.833Z,96.89
2023-04-14T04:25:18.716Z,97.10
2023-04-14T04:25:49.571Z,97.20
2023-04-14T04:26:20.413Z,97.00
2023-04-14T04:26:51.264Z,96.89
2023-04-14T04:27:28.002Z,97.00
2023-04-14T04:27:52.883Z,97.10
2023-04-14T04:28:23.716Z,97.10
2023-04-14T04:28:54.613Z,97.20
2023-04-14T04:29:25.449Z,97.10
2023-04-14T04:29:56.332Z,97.00
2023-04-14T04:30:26.321Z,97.00
2023-04-14T04:30:58.207Z,97.00
2023-04-14T04:31:29.126Z,96.89
2023-04-14T04:32:00.070Z,96.79
2023-04-14T04:32:31.028Z,96.79
2023-04-14T04:33:01.564Z,96.69
2023-04-14T04:33:31.992Z,96.89
2023-04-14T04:34:02.892Z,96.89
2023-04-14T04:34:33.763Z,96.79
2023-04-14T04:35:04.625Z,96.79
2023-04-14T04:35:35.385Z,96.69
2023-04-14T04:36:06.145Z,96.79
2023-04-14T04:36:36.988Z,96.69
2023-04-14T04:37:07.851Z,96.48
2023-04-14T04:37:38.699Z,96.58
2023-04-14T04:38:09.560Z,96.62
2023-04-14T04:38:40.395Z,96.83
2023-04-14T04:39:11.147Z,97.04
2023-04-14T04:39:42.027Z,96.94
2023-04-14T04:40:12.870Z,97.04
2023-04-14T04:40:43.787Z,97.04
2023-04-14T04:41:14.693Z,96.94
2023-04-14T04:41:45.571Z,96.94
2023-04-14T04:42:16.458Z,97.10
2023-04-14T04:42:47.344Z,97.25
2023-04-14T04:43:18.213Z,97.25
2023-04-14T04:43:49.075Z,97.31
2023-04-14T04:44:19.941Z,97.20
2023-04-14T04:44:50.802Z,96.89
2023-04-14T04:45:22.787Z,96.58
2023-04-14T04:45:51.389Z,96.27
2023-04-14T04:46:23.325Z,96.06
2023-04-14T04:46:54.235Z,96.27
2023-04-14T04:47:25.125Z,96.48
2023-04-14T04:47:56.056Z,96.58
2023-04-14T04:48:26.966Z,96.79
2023-04-14T04:48:57.970Z,96.69
2023-04-14T04:49:28.355Z,96.58
2023-04-14T04:49:58.321Z,96.69
2023-04-14T04:50:30.154Z,96.79
2023-04-14T04:51:00.911Z,96.89
2023-04-14T04:51:31.805Z,97.10
2023-04-14T04:52:02.707Z,97.20
2023-04-14T04:52:32.667Z,97.00
2023-04-14T04:53:35.388Z,96.58
2023-04-14T04:54:06.228Z,96.37
2023-04-14T04:54:37.085Z,96.06
2023-04-14T04:55:07.937Z,95.75
2023-04-14T04:55:38.774Z,95.65
2023-04-14T04:56:09.624Z,96.06
2023-04-14T04:56:39.436Z,96.37
2023-04-14T04:57:12.227Z,96.58
2023-04-14T04:57:42.192Z,96.69
2023-04-14T04:58:13.041Z,96.58
2023-04-14T04:58:43.906Z,96.58
2023-04-14T04:59:14.659Z,96.62
2023-04-14T04:59:45.553Z,96.52
2023-04-14T05:01:16.083Z,96.48
2023-04-14T05:01:48.092Z,96.48
2023-04-14T05:02:18.799Z,96.58
2023-04-14T05:02:49.899Z,96.69
2023-04-14T05:03:20.286Z,96.58
2023-04-14T05:03:51.138Z,96.48
2023-04-14T05:04:22.097Z,96.27
2023-04-14T05:04:52.703Z,96.37
2023-04-14T05:05:23.165Z,96.17
2023-04-14T05:05:54.057Z,95.96
2023-04-14T05:06:24.904Z,95.96
2023-04-14T05:06:55.725Z,96.06
2023-04-14T05:07:26.642Z,96.17
2023-04-14T05:07:57.496Z,96.17
2023-04-14T05:08:28.330Z,96.27
2023-04-14T05:08:59.412Z,96.48
2023-04-14T05:09:29.931Z,96.58
2023-04-14T05:10:00.793Z,96.27
2023-04-14T05:10:31.660Z,96.37
2023-04-14T05:11:02.533Z,96.48
2023-04-14T05:11:33.414Z,96.27
2023-04-14T05:12:04.263Z,96.06
2023-04-14T05:12:35.113Z,96.27
2023-04-14T05:13:05.948Z,96.48
2023-04-14T05:13:36.807Z,96.69
2023-04-14T05:14:07.643Z,96.48
2023-04-14T05:14:38.511Z,96.69
2023-04-14T05:15:09.391Z,96.79
2023-04-14T05:15:40.333Z,96.79
2023-04-14T05:16:11.265Z,96.79
2023-04-14T05:16:42.121Z,96.58
2023-04-14T05:17:12.993Z,96.58
2023-04-14T05:17:43.945Z,96.69
2023-04-14T05:18:14.811Z,96.37
2023-04-14T05:18:45.680Z,96.37
2023-04-14T05:19:16.554Z,96.58
2023-04-14T05:19:47.422Z,96.69
2023-04-14T05:20:18.270Z,96.58
2023-04-14T05:20:49.147Z,96.69
2023-04-14T05:21:19.990Z,97.00
2023-04-14T05:21:50.840Z,96.89
2023-04-14T05:22:21.686Z,96.79
2023-04-14T05:22:52.573Z,96.89
2023-04-14T05:23:23.401Z,97.10
2023-04-14T05:23:54.253Z,97.20
2023-04-14T05:24:25.130Z,97.20
2023-04-14T05:24:55.986Z,96.79
2023-04-14T05:25:26.870Z,96.79
2023-04-14T05:26:07.201Z,96.79
2023-04-14T05:26:44.545Z,96.89
2023-04-14T05:27:30.001Z,96.37
2023-04-14T05:28:00.890Z,96.48
2023-04-14T05:28:31.759Z,96.48
2023-04-14T05:29:02.815Z,96.69
2023-04-14T05:29:33.251Z,96.58
2023-04-14T05:30:04.130Z,96.58
2023-04-14T05:30:35.053Z,96.58
2023-04-14T05:31:05.898Z,96.58
2023-04-14T05:31:36.837Z,96.69
2023-04-14T05:32:07.738Z,96.89
2023-04-14T05:32:38.642Z,96.89
2023-04-14T05:33:09.548Z,96.89
2023-04-14T05:33:40.428Z,96.69
2023-04-14T05:34:11.293Z,96.17
2023-04-14T05:34:42.192Z,96.17
2023-04-14T05:35:13.064Z,96.27
2023-04-14T05:36:14.789Z,96.17
2023-04-14T05:36:45.654Z,96.06
2023-04-14T05:37:16.512Z,96.06
2023-04-14T05:37:47.396Z,96.27
2023-04-14T05:38:18.253Z,96.17
2023-04-14T05:38:49.140Z,95.96
2023-04-14T05:39:20.000Z,95.96
2023-04-14T05:39:50.857Z,95.86
2023-04-14T05:40:21.694Z,95.75
2023-04-14T05:40:52.571Z,95.86
2023-04-14T05:41:23.446Z,96.06
2023-04-14T05:41:54.298Z,96.37
2023-04-14T05:42:25.147Z,96.58
2023-04-14T05:42:57.119Z,96.48
2023-04-14T05:43:26.571Z,96.27
2023-04-14T05:43:57.403Z,96.23
2023-04-14T05:44:28.256Z,96.44
2023-04-14T05:44:59.121Z,96.64
2023-04-14T05:45:30.010Z,96.75
2023-04-14T05:46:00.904Z,96.75
2023-04-14T05:46:31.782Z,96.95
2023-04-14T05:47:02.726Z,96.95
2023-04-14T05:47:33.650Z,96.12
2023-04-14T05:48:04.550Z,95.92
2023-04-14T05:48:35.420Z,96.02
2023-04-14T05:49:06.279Z,96.02
2023-04-14T05:49:37.131Z,96.12
2023-04-14T05:50:07.986Z,96.23
2023-04-14T05:50:38.847Z,96.44
2023-04-14T05:51:09.698Z,96.33
2023-04-14T05:51:40.570Z,96.23
2023-04-14T05:52:11.534Z,96.44
2023-04-14T05:52:42.384Z,96.33
2023-04-14T05:53:13.272Z,96.23
2023-04-14T05:53:44.120Z,96.12
2023-04-14T05:54:14.991Z,96.02
2023-04-14T05:54:45.865Z,95.81
2023-04-14T05:55:16.743Z,96.12
2023-04-14T05:55:47.578Z,96.33
2023-04-14T05:56:18.450Z,96.54
2023-04-14T05:56:49.314Z,96.54
2023-04-14T05:57:20.183Z,96.64
2023-04-14T05:57:51.064Z,96.12
2023-04-14T05:58:21.944Z,95.81
2023-04-14T05:58:52.821Z,95.92
2023-04-14T05:59:23.683Z,95.92
2023-04-14T05:59:55.465Z,95.92
2023-04-14T06:00:25.333Z,96.23
2023-04-14T06:00:56.199Z,96.02
2023-04-14T06:01:27.077Z,96.12
2023-04-14T06:01:58.003Z,96.44
2023-04-14T06:02:29.093Z,96.33
2023-04-14T06:02:59.999Z,96.33
2023-04-14T06:03:30.840Z,96.23
2023-04-14T06:04:02.060Z,95.98
2023-04-14T06:04:32.384Z,95.77
2023-04-14T06:05:03.429Z,95.61
2023-04-14T06:05:33.804Z,95.61
2023-04-14T06:06:04.659Z,95.71
2023-04-14T06:06:35.507Z,95.61
2023-04-14T06:07:06.351Z,95.92
2023-04-14T06:07:35.922Z,95.81
2023-04-14T06:08:07.773Z,95.40
2023-04-14T06:08:38.620Z,95.50
2023-04-14T06:09:09.498Z,95.81
2023-04-14T06:09:40.353Z,96.23
2023-04-14T06:10:11.233Z,96.33
2023-04-14T06:10:42.137Z,96.75
2023-04-14T06:11:12.988Z,97.06
2023-04-14T06:11:43.826Z,97.16
2023-04-14T06:12:14.723Z,96.75
2023-04-14T06:12:45.590Z,96.44
2023-04-14T06:13:16.468Z,96.75
2023-04-14T06:13:47.355Z,96.75
2023-04-14T06:14:49.061Z,96.75
2023-04-14T06:15:19.916Z,96.75
2023-04-14T06:15:50.805Z,96.64
2023-04-14T06:16:21.707Z,96.64
2023-04-14T06:16:52.744Z,96.54
2023-04-14T06:17:23.260Z,96.75
2023-04-14T06:17:54.169Z,96.85
2023-04-14T06:18:25.010Z,96.85
2023-04-14T06:18:55.847Z,96.95
2023-04-14T06:19:26.714Z,97.06
2023-04-14T06:19:57.567Z,97.06
2023-04-14T06:20:29.592Z,97.16
2023-04-14T06:20:58.333Z,97.11
2023-04-14T06:21:30.214Z,97.06
2023-04-14T06:22:01.103Z,96.91
2023-04-14T06:22:31.968Z,96.59
2023-04-14T06:23:01.540Z,96.49
2023-04-14T06:23:33.420Z,96.39
2023-04-14T06:24:04.315Z,96.39
2023-04-14T06:24:35.212Z,96.39
2023-04-14T06:25:06.103Z,96.59
2023-04-14T06:25:36.971Z,96.80
2023-04-14T06:26:07.860Z,96.59
2023-04-14T06:26:38.707Z,96.49
2023-04-14T06:27:09.549Z,96.39
2023-04-14T06:27:40.403Z,96.39
2023-04-14T06:28:11.266Z,96.29
2023-04-14T06:28:43.799Z,96.29
2023-04-14T06:29:13.007Z,96.39
2023-04-14T06:29:43.953Z,96.49
2023-04-14T06:30:14.806Z,96.59
2023-04-14T06:30:45.659Z,96.59
2023-04-14T06:31:18.050Z,96.70
2023-04-14T06:32:18.462Z,96.80
2023-04-14T06:32:48.945Z,96.80
2023-04-14T06:33:19.904Z,97.01
2023-04-14T06:33:50.752Z,97.01
2023-04-14T06:34:21.617Z,96.91
2023-04-14T06:34:53.475Z,96.91
2023-04-14T06:35:32.306Z,96.70
2023-04-14T06:35:54.129Z,96.59
2023-04-14T06:36:23.686Z,96.39
2023-04-14T06:36:55.561Z,96.29
2023-04-14T06:37:26.444Z,96.39
2023-04-14T06:37:56.002Z,96.45
2023-04-14T06:38:27.884Z,96.66
2023-04-14T06:38:59.019Z,96.45
2023-04-14T06:39:29.567Z,96.45
2023-04-14T06:40:00.462Z,96.55
2023-04-14T06:40:30.086Z,96.76
2023-04-14T06:41:02.000Z,96.80
2023-04-14T06:41:32.923Z,96.66
2023-04-14T06:42:02.471Z,96.76
2023-04-14T06:42:33.023Z,96.66
2023-04-14T06:43:04.863Z,96.76
2023-04-14T06:43:35.739Z,97.17
2023-04-14T06:44:06.600Z,96.97
2023-04-14T06:44:37.483Z,96.91